Time;durP1;ratioP1;P1;durP2;ratioP2;P2;SDS_P1;SDS_P2;PMS_P1;PMS_P2;Temp;Humidity;BMP_temperature;BMP_pressure;BME280_temperature;BME280_humidity;BME280_pressure;Samples;Min_cycle;Max_cycle;Signal;HPM_P1;HPM_P2
2024/02/20 00:00:11;;;;;;;7.15;5.30;;;6.10;99.90;;;;;;5084608;28;20032;-66
2024/02/20 00:02:37;;;;;;;6.57;4.70;;;;;;;;;;5085079;28;20351;-66
2024/02/20 00:05:06;;;;;;;9.52;5.35;;;;;;;;;;5083297;28;20025;-69
2024/02/20 00:07:32;;;;;;;7.97;5.50;;;5.80;99.90;;;;;;5084463;28;20020;-65
2024/02/20 00:09:58;;;;;;;7.90;5.50;;;;;;;;;;5084215;28;20047;-64
2024/02/20 00:12:24;;;;;;;7.88;5.97;;;5.60;99.90;;;;;;5083719;28;20021;-66
2024/02/20 00:14:50;;;;;;;8.60;5.78;;;;;;;;;;5084043;28;20040;-64
2024/02/20 00:17:15;;;;;;;9.48;5.60;;;5.40;99.90;;;;;;5082953;28;20017;-65
2024/02/20 00:19:43;;;;;;;8.98;5.65;;;5.60;99.90;;;;;;5082854;28;20033;-64
2024/02/20 00:22:09;;;;;;;8.27;6.15;;;4.50;99.90;;;;;;5082501;28;20240;-64
2024/02/20 00:24:35;;;;;;;8.43;6.07;;;5.50;99.90;;;;;;5083151;28;20043;-65
2024/02/20 00:27:00;;;;;;;7.32;5.20;;;5.20;99.90;;;;;;5083040;28;20059;-64
2024/02/20 00:29:26;;;;;;;9.18;5.78;;;5.20;99.90;;;;;;5082595;28;20050;-65
2024/02/20 00:31:52;;;;;;;9.77;6.28;;;;;;;;;;5082799;28;20024;-64
2024/02/20 00:34:18;;;;;;;11.20;6.00;;;5.00;99.90;;;;;;5080456;28;20375;-65
2024/02/20 00:36:44;;;;;;;9.02;6.15;;;;;;;;;;5063810;28;20024;-65
2024/02/20 00:39:12;;;;;;;8.05;6.10;;;;;;;;;;5078943;28;20216;-65
2024/02/20 00:41:38;;;;;;;7.93;6.15;;;;;;;;;;5062558;28;20041;-65
2024/02/20 00:44:04;;;;;;;12.38;6.47;;;;;;;;;;5066177;28;20240;-65
2024/02/20 00:46:30;;;;;;;11.13;6.07;;;4.90;99.90;;;;;;5082378;28;20044;-65
2024/02/20 00:48:58;;;;;;;12.90;6.60;;;5.10;99.90;;;;;;5073107;28;20047;-67
2024/02/20 00:51:24;;;;;;;10.13;6.47;;;4.80;99.90;;;;;;5062130;28;20024;-66
2024/02/20 00:53:50;;;;;;;10.63;6.95;;;4.60;99.90;;;;;;5066389;28;20063;-66
2024/02/20 00:56:16;;;;;;;11.02;8.07;;;4.60;99.90;;;;;;5081318;28;20031;-67
2024/02/20 00:58:45;;;;;;;11.93;6.38;;;4.70;99.90;;;;;;5082119;28;20032;-65
2024/02/20 01:01:11;;;;;;;;;;;4.70;99.90;;;;;;5082507;28;20032;-65
2024/02/20 01:03:38;;;;;;;8.52;5.45;;;;;;;;;;5080849;28;19912;-67
2024/02/20 01:06:06;;;;;;;9.15;6.22;;;4.50;99.90;;;;;;5082280;28;20046;-67
2024/02/20 01:08:32;;;;;;;9.27;6.05;;;4.60;99.90;;;;;;5081966;28;20067;-66
2024/02/20 01:10:57;;;;;;;9.57;5.90;;;4.40;99.90;;;;;;5081864;28;20087;-66
2024/02/20 01:13:23;;;;;;;7.63;5.45;;;;;;;;;;5081923;28;20024;-66
2024/02/20 01:15:50;;;;;;;9.27;5.68;;;;;;;;;;5082151;28;20032;-67
2024/02/20 01:18:16;;;;;;;10.32;5.72;;;4.40;99.90;;;;;;5075513;28;20012;-65
2024/02/20 01:20:42;;;;;;;14.48;5.57;;;;;;;;;;5061876;28;20052;-64
2024/02/20 01:23:08;;;;;;;9.55;5.80;;;;;;;;;;5080805;28;20233;-65
2024/02/20 01:25:34;;;;;;;8.40;5.53;;;;;;;;;;5081130;28;20055;-65
2024/02/20 01:28:01;;;;;;;7.90;5.70;;;;;;;;;;5081088;28;20024;-66
2024/02/20 01:30:27;;;;;;;9.18;6.30;;;4.30;99.90;;;;;;5081053;28;20080;-67
2024/02/20 01:32:57;;;;;;;8.85;5.05;;;;;;;;;;5080742;28;20063;-67
2024/02/20 01:35:23;;;;;;;9.50;5.60;;;4.40;99.90;;;;;;5081355;28;20112;-66
2024/02/20 01:37:49;;;;;;;8.38;5.05;;;;;;;;;;5080945;28;20035;-67
2024/02/20 01:40:16;;;;;;;10.20;6.18;;;4.40;99.90;;;;;;5078665;28;20055;-65
2024/02/20 01:42:43;;;;;;;6.65;4.82;;;4.30;99.90;;;;;;5081191;28;20024;-66
2024/02/20 01:45:09;;;;;;;8.23;5.40;;;4.40;99.90;;;;;;5081083;28;20232;-65
2024/02/20 01:47:36;;;;;;;8.48;5.10;;;4.40;99.90;;;;;;5081192;28;20040;-65
2024/02/20 01:50:02;;;;;;;8.35;5.30;;;4.70;99.90;;;;;;5080921;28;20480;-65
2024/02/20 01:52:28;;;;;;;9.00;5.10;;;;;;;;;;5080546;28;20028;-65
2024/02/20 01:55:00;;;;;;;6.55;4.65;;;4.50;99.90;;;;;;5080779;28;20054;-64
2024/02/20 01:57:25;;;;;;;10.80;4.97;;;4.40;99.90;;;;;;5080578;28;20031;-66
2024/02/20 01:59:51;;;;;;;7.57;4.97;;;4.70;99.90;;;;;;5080477;28;20016;-65
2024/02/20 02:02:20;;;;;;;10.00;5.68;;;4.60;99.90;;;;;;5079261;28;20273;-64
2024/02/20 02:04:46;;;;;;;7.97;5.28;;;;;;;;;;5080416;28;20031;-65
2024/02/20 02:07:12;;;;;;;7.55;5.30;;;;;;;;;;5081281;28;20025;-64
2024/02/20 02:09:37;;;;;;;6.63;4.85;;;4.50;99.90;;;;;;5080980;28;20058;-65
2024/02/20 02:12:04;;;;;;;7.32;4.70;;;4.60;99.90;;;;;;5081033;28;20016;-65
2024/02/20 02:14:31;;;;;;;7.07;4.40;;;4.70;99.90;;;;;;5080714;28;20030;-66
2024/02/20 02:16:58;;;;;;;7.05;4.82;;;4.60;99.90;;;;;;5079497;28;20325;-66
2024/02/20 02:19:24;;;;;;;4.72;4.13;;;4.70;99.90;;;;;;5080931;28;20087;-66
2024/02/20 02:21:50;;;;;;;7.35;4.68;;;;;;;;;;5080777;28;20040;-66
2024/02/20 02:24:16;;;;;;;6.20;4.07;;;;;;;;;;5080626;28;20020;-66
2024/02/20 02:26:41;;;;;;;8.15;4.70;;;4.80;99.90;;;;;;5080704;28;20301;-65
2024/02/20 02:29:07;;;;;;;7.75;4.63;;;;;;;;;;5080682;28;20092;-65
2024/02/20 02:31:33;;;;;;;8.27;5.07;;;4.10;99.90;;;;;;5080687;28;20081;-66
2024/02/20 02:34:02;;;;;;;10.05;4.43;;;;;;;;;;5080324;28;20344;-65
2024/02/20 02:36:28;;;;;;;5.60;3.97;;;;;;;;;;5080593;28;20086;-65
2024/02/20 02:38:53;;;;;;;10.57;4.43;;;3.80;99.90;;;;;;5080644;28;20059;-68
2024/02/20 02:41:21;;;;;;;7.85;4.68;;;4.10;99.90;;;;;;5079690;28;20028;-67
2024/02/20 02:43:47;;;;;;;8.30;4.20;;;;;;;;;;5094837;28;20028;-66
2024/02/20 02:46:13;;;;;;;6.38;4.32;;;3.80;99.90;;;;;;5104706;28;20030;-66
2024/02/20 02:48:39;;;;;;;8.32;4.93;;;3.90;99.90;;;;;;5104927;28;20087;-65
2024/02/20 02:51:08;;;;;;;7.18;4.70;;;3.80;99.90;;;;;;5104927;28;20024;-66
2024/02/20 02:53:34;;;;;;;6.22;4.20;;;3.70;99.90;;;;;;5104713;28;20020;-65
2024/02/20 02:55:59;;;;;;;6.35;4.15;;;3.80;99.90;;;;;;5104680;28;20024;-67
2024/02/20 02:58:26;;;;;;;6.47;4.20;;;;;;;;;;5104523;28;20051;-65
2024/02/20 03:00:52;;;;;;;5.90;4.07;;;;;;;;;;5094699;28;20033;-66
2024/02/20 03:03:20;;;;;;;6.90;4.43;;;3.80;99.90;;;;;;5103465;28;20027;-65
2024/02/20 03:05:47;;;;;;;6.15;3.85;;;;;;;;;;5104043;28;20031;-64
2024/02/20 03:08:14;;;;;;;6.35;4.22;;;3.80;99.90;;;;;;5104603;28;20055;-65
2024/02/20 03:10:40;;;;;;;8.23;4.78;;;;;;;;;;5104104;28;20028;-66
2024/02/20 03:13:06;;;;;;;5.82;4.15;;;;;;;;;;5078524;28;20027;-65
2024/02/20 03:15:32;;;;;;;6.90;4.47;;;;;;;;;;5071507;28;20024;-66
2024/02/20 03:18:00;;;;;;;8.80;4.72;;;3.70;99.90;;;;;;5081500;28;20028;-65
2024/02/20 03:20:25;;;;;;;7.85;4.93;;;3.70;99.90;;;;;;5103004;28;20024;-65
2024/02/20 03:22:53;;;;;;;6.38;4.35;;;;;;;;;;5103853;28;20104;-65
2024/02/20 03:25:19;;;;;;;9.15;5.57;;;3.70;99.90;;;;;;5104381;28;20046;-65
2024/02/20 03:27:45;;;;;;;8.15;5.15;;;;;;;;;;5102768;28;20032;-65
2024/02/20 03:30:12;;;;;;;10.15;5.25;;;;;;;;;;5103999;28;20019;-65
2024/02/20 03:32:38;;;;;;;10.50;5.63;;;;;;;;;;5104697;28;20060;-64
2024/02/20 03:35:10;;;;;;;7.65;4.10;;;3.20;99.90;;;;;;5103713;28;20336;-64
2024/02/20 03:37:36;;;;;;;7.50;3.83;;;3.20;99.90;;;;;;5104108;28;20024;-64
2024/02/20 03:40:05;;;;;;;7.30;3.85;;;;;;;;;;5094630;28;20056;-65
2024/02/20 03:42:33;;;;;;;6.18;4.00;;;;;;;;;;5104200;28;20036;-65
2024/02/20 03:44:58;;;;;;;5.57;3.83;;;3.10;99.90;;;;;;5103773;28;20090;-64
2024/02/20 03:47:24;;;;;;;5.78;4.40;;;3.40;99.90;;;;;;5103708;28;20024;-66
2024/02/20 03:49:50;;;;;;;7.13;4.13;;;3.30;99.90;;;;;;5103677;28;20016;-67
2024/02/20 03:52:16;;;;;;;6.63;4.13;;;3.20;99.90;;;;;;5103868;28;20287;-67
2024/02/20 03:54:42;;;;;;;6.57;3.75;;;;;;;;;;5103323;28;20023;-66
2024/02/20 03:57:10;;;;;;;7.43;4.30;;;;;;;;;;5094051;28;20039;-67
2024/02/20 03:59:35;;;;;;;6.78;4.75;;;3.40;99.90;;;;;;5103737;28;20305;-66
2024/02/20 04:02:01;;;;;;;5.00;3.58;;;3.30;99.90;;;;;;5103621;28;20064;-68
2024/02/20 04:04:29;;;;;;;5.65;4.32;;;;;;;;;;5103536;28;20024;-67
2024/02/20 04:06:55;;;;;;;6.60;3.97;;;;;;;;;;5103602;28;20020;-67
2024/02/20 04:09:20;;;;;;;6.18;3.95;;;3.60;99.90;;;;;;5103498;28;20024;-66
2024/02/20 04:11:46;;;;;;;6.75;4.15;;;3.30;99.90;;;;;;5094103;28;20070;-68
2024/02/20 04:14:11;;;;;;;6.68;4.47;;;3.40;99.90;;;;;;5103434;28;20081;-67
2024/02/20 04:16:37;;;;;;;8.38;4.50;;;;;;;;;;5103282;28;20247;-68
2024/02/20 04:19:04;;;;;;;8.45;4.70;;;3.40;99.90;;;;;;5103407;28;20030;-67
2024/02/20 04:21:29;;;;;;;8.23;4.50;;;3.50;99.90;;;;;;5103093;28;20065;-67
2024/02/20 04:23:56;;;;;;;8.38;4.20;;;3.50;99.90;;;;;;5103293;28;20024;-66
2024/02/20 04:26:22;;;;;;;7.72;4.90;;;3.40;99.90;;;;;;5103074;28;20027;-67
2024/02/20 04:28:48;;;;;;;8.82;4.38;;;3.40;99.90;;;;;;5094515;28;20069;-67
2024/02/20 04:31:15;;;;;;;7.03;4.57;;;;;;;;;;5103369;28;20105;-69
2024/02/20 04:33:41;;;;;;;10.38;4.70;;;3.70;99.90;;;;;;5103637;28;20052;-67
2024/02/20 04:36:07;;;;;;;9.10;4.13;;;3.40;99.90;;;;;;5106068;28;20026;-68
2024/02/20 04:38:33;;;;;;;4.97;3.70;;;;;;;;;;5105827;28;20027;-67
2024/02/20 04:40:59;;;;;;;11.10;5.18;;;3.30;99.90;;;;;;5105873;28;20028;-71
2024/02/20 04:43:25;;;;;;;6.65;4.07;;;;;;;;;;5096435;28;20021;-67
2024/02/20 04:45:51;;;;;;;5.82;4.43;;;3.40;99.90;;;;;;5105512;28;20058;-70
2024/02/20 04:48:16;;;;;;;9.95;4.65;;;3.30;99.90;;;;;;5105902;28;20027;-70
2024/02/20 04:50:42;;;;;;;8.65;5.00;;;3.20;99.90;;;;;;5106003;28;20016;-70
2024/02/20 04:53:09;;;;;;;7.25;4.43;;;3.30;99.90;;;;;;5106212;28;20062;-68
2024/02/20 04:55:36;;;;;;;5.75;4.03;;;;;;;;;;5105906;28;20028;-70
2024/02/20 04:58:02;;;;;;;7.38;3.65;;;3.20;99.90;;;;;;5106677;28;20038;-68
2024/02/20 05:00:29;;;;;;;10.27;5.82;;;3.20;99.90;;;;;;5094714;28;20091;-68
2024/02/20 05:02:58;;;;;;;7.80;4.65;;;3.00;99.90;;;;;;5106038;28;20028;-69
2024/02/20 05:05:24;;;;;;;6.43;4.30;;;;;;;;;;5104003;28;20024;-69
2024/02/20 05:07:50;;;;;;;7.35;4.18;;;;;;;;;;5102355;28;20248;-70
2024/02/20 05:10:16;;;;;;;7.18;3.97;;;;;;;;;;5102776;28;20047;-70
2024/02/20 05:12:43;;;;;;;4.93;4.40;;;2.80;99.90;;;;;;5102584;28;20135;-68
2024/02/20 05:15:09;;;;;;;6.05;3.97;;;;;;;;;;5092757;28;20099;-64
2024/02/20 05:17:35;;;;;;;8.45;4.68;;;;;;;;;;5102497;28;20328;-66
2024/02/20 05:20:01;;;;;;;8.13;5.25;;;3.00;99.90;;;;;;5102495;28;20023;-66
2024/02/20 05:22:30;;;;;;;6.82;4.13;;;3.00;99.90;;;;;;5102896;28;20062;-66
2024/02/20 05:24:56;;;;;;;5.38;3.88;;;;;;;;;;5094827;28;20035;-67
2024/02/20 05:27:23;;;;;;;9.32;4.35;;;;;;;;;;5082066;28;20051;-66
2024/02/20 05:29:49;;;;;;;7.53;3.63;;;;;;;;;;5081658;28;20043;-66
2024/02/20 05:32:15;;;;;;;7.15;3.55;;;;;;;;;;5081385;28;20048;-70
2024/02/20 05:34:41;;;;;;;9.35;4.50;;;;;;;;;;5077967;28;20052;-68
2024/02/20 05:37:06;;;;;;;6.82;4.07;;;3.00;99.90;;;;;;5073609;28;20040;-70
2024/02/20 05:39:32;;;;;;;9.63;5.30;;;2.60;99.90;;;;;;5064412;28;20301;-67
2024/02/20 05:41:58;;;;;;;8.30;4.32;;;;;;;;;;5064537;28;20036;-66
2024/02/20 05:44:24;;;;;;;7.13;4.70;;;;;;;;;;5065035;28;20016;-66
2024/02/20 05:46:50;;;;;;;6.22;3.83;;;;;;;;;;5065490;28;20287;-65
2024/02/20 05:49:16;;;;;;;6.63;4.05;;;;;;;;;;5083434;28;20032;-68
2024/02/20 05:51:42;;;;;;;5.75;3.50;;;;;;;;;;5070466;28;20245;-67
2024/02/20 05:54:08;;;;;;;5.18;3.70;;;3.00;99.90;;;;;;5083244;28;20024;-68
2024/02/20 05:56:35;;;;;;;6.55;3.90;;;2.90;99.90;;;;;;5064543;28;20017;-66
2024/02/20 05:59:02;;;;;;;5.55;3.72;;;3.00;99.90;;;;;;5064579;28;20076;-66
2024/02/20 06:01:27;;;;;;;8.38;3.92;;;3.00;99.90;;;;;;5083961;28;20096;-66
2024/02/20 06:03:53;;;;;;;7.18;4.03;;;2.60;99.90;;;;;;5084729;28;20013;-66
2024/02/20 06:06:18;;;;;;;5.10;3.42;;;2.90;99.90;;;;;;5084413;28;20236;-68
2024/02/20 06:08:46;;;;;;;5.60;3.83;;;3.00;99.90;;;;;;5084527;28;20025;-67
2024/02/20 06:11:21;;;;;;;6.88;3.25;;;3.00;99.90;;;;;;5082278;28;20032;-66
2024/02/20 06:13:48;;;;;;;3.45;2.65;;;3.30;99.90;;;;;;5083530;28;20112;-66
2024/02/20 06:16:14;;;;;;;4.68;3.20;;;3.00;99.90;;;;;;5103865;28;20087;-66
2024/02/20 06:18:40;;;;;;;6.65;3.65;;;;;;;;;;5101653;28;20020;-64
2024/02/20 06:21:10;;;;;;;7.78;3.95;;;3.00;99.90;;;;;;5101029;28;20040;-63
2024/02/20 06:23:39;;;;;;;5.20;3.40;;;2.90;99.90;;;;;;5084181;28;20040;-63
2024/02/20 06:26:07;;;;;;;;;;;3.10;99.90;;;;;;5081335;28;20024;-63
2024/02/20 06:28:33;;;;;;;8.35;3.97;;;3.10;99.90;;;;;;5081130;28;20188;-63
2024/02/20 06:31:00;;;;;;;10.40;3.63;;;3.00;99.90;;;;;;5080001;28;20017;-63
2024/02/20 06:33:27;;;;;;;6.75;3.25;;;;;;;;;;5081180;28;20276;-63
2024/02/20 06:35:53;;;;;;;5.22;3.53;;;3.30;99.90;;;;;;5080176;28;20208;-65
2024/02/20 06:38:19;;;;;;;5.72;3.10;;;3.30;99.90;;;;;;5080885;28;20020;-65
2024/02/20 06:40:44;;;;;;;7.03;3.60;;;3.30;99.90;;;;;;5080989;28;20040;-69
2024/02/20 06:43:10;;;;;;;5.82;3.83;;;;;;;;;;5081141;28;20020;-63
2024/02/20 06:45:38;;;;;;;7.15;3.88;;;;;;;;;;5080792;28;20036;-66
2024/02/20 06:48:04;;;;;;;8.43;3.85;;;3.40;99.90;;;;;;5089379;28;20020;-63
2024/02/20 06:50:29;;;;;;;6.68;3.85;;;3.30;99.90;;;;;;5101002;28;20040;-64
2024/02/20 06:52:55;;;;;;;5.13;3.15;;;;;;;;;;5100128;28;20042;-66
2024/02/20 06:55:21;;;;;;;6.20;3.92;;;3.40;99.90;;;;;;5100001;28;20255;-63
2024/02/20 06:57:50;;;;;;;5.20;3.42;;;;;;;;;;5099902;28;20042;-66
2024/02/20 07:00:18;;;;;;;5.18;3.53;;;;;;;;;;5099780;28;20046;-63
2024/02/20 07:02:44;;;;;;;6.03;3.67;;;3.60;99.90;;;;;;5099299;28;20040;-69
2024/02/20 07:05:14;;;;;;;8.65;2.97;;;3.90;99.90;;;;;;5099863;28;20051;-63
2024/02/20 07:07:40;;;;;;;8.15;2.97;;;;;;;;;;5099092;28;20028;-64
2024/02/20 07:10:07;;;;;;;5.00;2.88;;;3.80;99.90;;;;;;5089631;28;20050;-64
2024/02/20 07:12:35;;;;;;;5.15;2.90;;;3.90;99.90;;;;;;5099165;28;20036;-65
2024/02/20 07:15:02;;;;;;;5.13;3.47;;;4.00;99.90;;;;;;5099601;28;20020;-64
2024/02/20 07:17:28;;;;;;;5.43;3.20;;;;;;;;;;5100664;28;20032;-64
2024/02/20 07:19:55;;;;;;;5.13;3.50;;;4.10;99.90;;;;;;5100400;28;20247;-62
2024/02/20 07:22:21;;;;;;;4.68;3.53;;;4.60;99.90;;;;;;5099364;28;20028;-63
2024/02/20 07:24:47;;;;;;;3.85;3.15;;;;;;;;;;5100642;28;20038;-66
2024/02/20 07:27:16;;;;;;;5.05;3.47;;;4.50;99.90;;;;;;5100472;28;20036;-63
2024/02/20 07:29:42;;;;;;;3.95;2.85;;;4.70;99.90;;;;;;5102109;28;20016;-63
2024/02/20 07:32:09;;;;;;;4.30;2.88;;;;;;;;;;5104214;28;20028;-63
2024/02/20 07:34:38;;;;;;;5.15;3.22;;;;;;;;;;5104019;28;20097;-63
2024/02/20 07:37:04;;;;;;;;;;;5.00;99.90;;;;;;5104587;28;20028;-62
2024/02/20 07:39:30;;;;;;;7.68;3.42;;;5.30;99.90;;;;;;5104032;28;19922;-63
2024/02/20 07:41:56;;;;;;;9.13;4.40;;;;;;;;;;5104014;28;20042;-62
2024/02/20 07:44:22;;;;;;;6.03;3.67;;;5.70;99.90;;;;;;5094655;28;20048;-63
2024/02/20 07:46:48;;;;;;;6.18;3.90;;;;;;;;;;5103795;28;20324;-62
2024/02/20 07:49:14;;;;;;;4.57;3.08;;;;;;;;;;5103968;28;20020;-65
2024/02/20 07:51:40;;;;;;;7.30;3.70;;;6.10;99.90;;;;;;5102825;28;20020;-63
2024/02/20 07:54:07;;;;;;;9.75;3.80;;;;;;;;;;5103531;28;20222;-63
2024/02/20 07:56:32;;;;;;;8.05;4.40;;;6.30;99.90;;;;;;5103906;28;20017;-63
2024/02/20 07:58:59;;;;;;;10.18;4.32;;;6.50;99.90;;;;;;5102319;28;20254;-63
2024/02/20 08:01:26;;;;;;;8.45;4.15;;;6.60;99.90;;;;;;5103696;28;20043;-63
2024/02/20 08:03:55;;;;;;;5.45;3.50;;;6.80;99.90;;;;;;5103763;28;20019;-63
2024/02/20 08:06:21;;;;;;;5.85;3.88;;;6.90;99.90;;;;;;5102324;28;20099;-63
2024/02/20 08:08:47;;;;;;;7.57;4.03;;;7.10;99.90;;;;;;5103438;28;20083;-64
2024/02/20 08:11:13;;;;;;;8.93;3.90;;;;;;;;;;5103241;28;20047;-63
2024/02/20 08:13:45;;;;;;;7.50;3.70;;;7.50;99.90;;;;;;5103329;28;20220;-63
2024/02/20 08:16:14;;;;;;;8.68;4.43;;;7.50;99.90;;;;;;5103359;28;20030;-63
2024/02/20 08:18:41;;;;;;;7.80;4.10;;;7.60;99.90;;;;;;5103051;28;20048;-63
2024/02/20 08:21:10;;;;;;;5.15;3.75;;;7.60;99.90;;;;;;5103054;28;20027;-62
2024/02/20 08:23:36;;;;;;;6.80;4.18;;;;;;;;;;5103293;28;20028;-63
2024/02/20 08:26:03;;;;;;;6.97;4.00;;;8.20;99.90;;;;;;5102998;28;20087;-63
2024/02/20 08:28:29;;;;;;;6.18;4.10;;;8.20;99.90;;;;;;5103181;28;20062;-63
2024/02/20 08:30:55;;;;;;;5.53;4.20;;;;;;;;;;5102944;28;20031;-63
2024/02/20 08:33:20;;;;;;;8.40;3.85;;;8.40;99.90;;;;;;5102642;28;20052;-63
2024/02/20 08:35:46;;;;;;;5.57;3.95;;;8.40;99.90;;;;;;5103008;28;20429;-64
2024/02/20 08:38:12;;;;;;;6.50;4.03;;;8.80;99.90;;;;;;5102898;28;20083;-62
2024/02/20 08:40:37;;;;;;;4.97;3.95;;;9.00;99.90;;;;;;5101709;28;20216;-63
2024/02/20 08:43:03;;;;;;;5.53;4.20;;;9.20;99.90;;;;;;5102367;28;20061;-63
2024/02/20 08:45:29;;;;;;;8.10;4.35;;;9.70;99.90;;;;;;5102569;28;20047;-63
2024/02/20 08:47:54;;;;;;;6.65;4.20;;;9.60;99.90;;;;;;5102457;28;20330;-65
2024/02/20 08:50:23;;;;;;;7.15;3.88;;;10.30;99.90;;;;;;5102664;28;20036;-64
2024/02/20 08:52:49;;;;;;;8.95;4.43;;;10.10;99.90;;;;;;5092953;28;20043;-66
2024/02/20 08:55:15;;;;;;;6.10;4.15;;;10.50;99.90;;;;;;5102570;28;20038;-68
2024/02/20 08:57:41;;;;;;;7.82;4.13;;;;;;;;;;5102728;28;20366;-66
2024/02/20 09:00:14;;;;;;;7.32;3.47;;;10.60;99.90;;;;;;5102640;28;20023;-66
2024/02/20 09:02:40;;;;;;;7.03;3.55;;;10.50;99.90;;;;;;5102534;28;20088;-65
2024/02/20 09:05:09;;;;;;;4.25;3.38;;;10.50;96.30;;;;;;5102399;28;20028;-65
2024/02/20 09:07:38;;;;;;;4.85;2.70;;;10.60;99.90;;;;;;5102459;28;20062;-66
2024/02/20 09:10:05;;;;;;;7.20;3.70;;;10.60;99.90;;;;;;5102172;28;20074;-65
2024/02/20 09:12:31;;;;;;;3.70;2.72;;;10.80;99.90;;;;;;5102087;28;20094;-68
2024/02/20 09:15:00;;;;;;;6.40;3.70;;;10.60;99.90;;;;;;5102387;28;20042;-67
2024/02/20 09:17:26;;;;;;;5.97;3.70;;;10.60;99.90;;;;;;5102083;28;20032;-67
2024/02/20 09:19:52;;;;;;;7.28;2.85;;;10.80;99.40;;;;;;5102190;28;20039;-67
2024/02/20 09:22:17;;;;;;;6.60;3.17;;;10.60;99.80;;;;;;5102132;28;20055;-70
2024/02/20 09:24:44;;;;;;;4.25;2.67;;;10.90;99.30;;;;;;5101938;28;20046;-67
2024/02/20 09:27:10;;;;;;;6.50;3.08;;;11.40;98.50;;;;;;5101999;28;20608;-67
2024/02/20 09:29:36;;;;;;;5.22;2.63;;;10.90;97.50;;;;;;5097114;28;20063;-66
2024/02/20 09:32:02;;;;;;;4.32;2.80;;;11.00;97.40;;;;;;5102029;28;20051;-66
2024/02/20 09:34:28;;;;;;;4.50;3.40;;;11.20;97.60;;;;;;5101739;28;20074;-66
2024/02/20 09:36:54;;;;;;;4.43;2.80;;;11.20;96.40;;;;;;5101977;28;20086;-66
2024/02/20 09:39:23;;;;;;;4.82;2.70;;;11.40;88.30;;;;;;5101768;28;20053;-66
2024/02/20 09:41:53;;;;;;;3.28;2.50;;;11.80;95.60;;;;;;5101737;28;20031;-67
2024/02/20 09:44:26;;;;;;;3.97;3.17;;;11.40;95.70;;;;;;5101627;28;20319;-67
2024/02/20 09:46:54;;;;;;;4.20;2.38;;;11.80;94.30;;;;;;5102047;28;20028;-67
2024/02/20 09:49:20;;;;;;;4.72;2.88;;;11.60;94.20;;;;;;5101834;28;20035;-65
2024/02/20 09:51:46;;;;;;;3.28;2.55;;;11.70;94.10;;;;;;5101036;28;20095;-68
2024/02/20 09:54:14;;;;;;;3.53;2.22;;;11.60;93.20;;;;;;5101719;28;20024;-66
2024/02/20 09:56:41;;;;;;;5.53;2.75;;;11.80;92.60;;;;;;5099332;28;20200;-66
2024/02/20 09:59:07;;;;;;;5.07;2.90;;;11.60;93.30;;;;;;5081204;28;20029;-67
2024/02/20 10:01:35;;;;;;;4.63;2.80;;;11.80;93.30;;;;;;5081250;28;20052;-65
2024/02/20 10:04:04;;;;;;;5.22;2.50;;;11.80;93.40;;;;;;5081094;28;20012;-65
2024/02/20 10:06:30;;;;;;;;;;;11.70;82.30;;;;;;5081587;28;20032;-66
2024/02/20 10:08:56;;;;;;;3.35;1.95;;;11.40;93.10;;;;;;5080384;28;19908;-64
2024/02/20 10:11:22;;;;;;;2.55;2.08;;;11.40;92.70;;;;;;5079544;28;20040;-65
2024/02/20 10:13:52;;;;;;;3.80;1.90;;;11.50;92.80;;;;;;5076411;28;20055;-66
2024/02/20 10:16:24;;;;;;;4.88;1.80;;;11.40;91.90;;;;;;5079564;28;20036;-65
2024/02/20 10:19:04;;;;;;;3.80;1.75;;;11.50;91.30;;;;;;5079544;28;20031;-66
2024/02/20 10:21:30;;;;;;;4.43;2.08;;;11.50;91.30;;;;;;5079168;28;20099;-66
2024/02/20 10:24:03;;;;;;;2.83;1.40;;;11.90;91.20;;;;;;5078772;28;20028;-67
2024/02/20 10:26:30;;;;;;;2.65;1.95;;;12.20;90.50;;;;;;5078807;28;20328;-65
2024/02/20 10:28:58;;;;;;;5.38;1.60;;;12.20;90.30;;;;;;5079098;28;20097;-66
2024/02/20 10:31:25;;;;;;;2.75;1.85;;;12.20;90.40;;;;;;5079459;28;20081;-66
2024/02/20 10:33:52;;;;;;;3.28;1.85;;;12.20;75.80;;;;;;5078771;28;20638;-69
2024/02/20 10:36:21;;;;;;;5.63;2.20;;;12.30;88.60;;;;;;5078871;28;20032;-66
2024/02/20 10:38:49;;;;;;;3.50;2.10;;;12.50;88.50;;;;;;5078838;28;20039;-67
2024/02/20 10:41:18;;;;;;;4.13;2.20;;;12.20;88.90;;;;;;5078774;28;20063;-67
2024/02/20 10:43:46;;;;;;;6.15;2.13;;;12.30;74.00;;;;;;5061683;28;20044;-67
2024/02/20 10:46:12;;;;;;;3.75;2.10;;;12.60;89.30;;;;;;5058719;28;20040;-66
2024/02/20 10:48:39;;;;;;;3.15;2.55;;;12.30;79.80;;;;;;5058594;28;20120;-65
2024/02/20 10:51:07;;;;;;;3.38;2.15;;;12.50;82.00;;;;;;5058100;28;20501;-68
2024/02/20 10:53:33;;;;;;;3.17;2.25;;;12.50;89.20;;;;;;5058596;28;20025;-69
2024/02/20 10:56:02;;;;;;;4.47;2.50;;;12.50;72.50;;;;;;5058718;28;20029;-66
2024/02/20 10:58:29;;;;;;;3.90;2.67;;;12.40;88.00;;;;;;5057177;28;20025;-66
2024/02/20 11:00:55;;;;;;;5.15;2.47;;;12.30;74.40;;;;;;5058723;28;20037;-66
2024/02/20 11:03:21;;;;;;;3.60;2.33;;;12.40;88.60;;;;;;5058701;28;20088;-65
2024/02/20 11:05:51;;;;;;;5.35;2.88;;;12.80;90.00;;;;;;5062244;28;20036;-68
2024/02/20 11:08:28;;;;;;;4.88;2.75;;;12.50;89.40;;;;;;5062849;28;20067;-67
2024/02/20 11:10:54;;;;;;;6.97;3.17;;;12.30;90.10;;;;;;5063732;28;20032;-66
2024/02/20 11:13:27;;;;;;;5.05;2.80;;;12.40;89.70;;;;;;5064004;28;20025;-68
2024/02/20 11:15:53;;;;;;;4.13;2.85;;;12.50;89.10;;;;;;5063761;28;20020;-66
2024/02/20 11:18:20;;;;;;;7.70;3.28;;;12.80;89.50;;;;;;5063032;28;20025;-70
2024/02/20 11:20:58;;;;;;;4.43;3.13;;;13.20;88.60;;;;;;5062629;28;20024;-67
2024/02/20 11:23:31;;;;;;;4.95;3.45;;;13.30;87.40;;;;;;5063089;28;20021;-68
2024/02/20 11:26:09;;;;;;;5.57;2.50;;;13.10;86.40;;;;;;5062897;28;20017;-66
2024/02/20 11:28:36;;;;;;;3.58;2.55;;;13.10;85.00;;;;;;5062774;28;20028;-71
2024/02/20 11:31:03;;;;;;;2.58;2.22;;;13.10;70.40;;;;;;5062425;28;20021;-67
2024/02/20 11:33:32;;;;;;;3.75;2.50;;;13.00;84.90;;;;;;5062203;28;20387;-66
2024/02/20 11:35:58;;;;;;;;;;;13.10;70.00;;;;;;5063062;28;20028;-67
2024/02/20 11:38:24;;;;;;;4.25;2.50;;;13.10;70.80;;;;;;5062690;28;19951;-71
2024/02/20 11:40:51;;;;;;;3.63;2.30;;;13.00;70.40;;;;;;5062098;28;20491;-67
2024/02/20 11:43:19;;;;;;;5.13;2.50;;;13.40;86.60;;;;;;5062184;28;20050;-68
2024/02/20 11:45:45;;;;;;;4.78;2.30;;;;;;;;;;5062362;28;20036;-65
2024/02/20 11:48:12;;;;;;;4.57;2.63;;;13.20;75.70;;;;;;5062552;28;20021;-71
2024/02/20 11:50:40;;;;;;;4.80;2.80;;;13.40;85.90;;;;;;5062107;28;20017;-67
2024/02/20 11:53:14;;;;;;;3.42;2.47;;;13.30;70.50;;;;;;5062141;28;20029;-68
2024/02/20 11:55:42;;;;;;;3.92;2.50;;;13.30;85.70;;;;;;5062135;28;20035;-65
2024/02/20 11:58:08;;;;;;;4.53;2.50;;;13.10;85.30;;;;;;5061924;28;20028;-64
2024/02/20 12:00:38;;;;;;;3.65;2.67;;;13.10;69.70;;;;;;5061600;28;20031;-67
2024/02/20 12:03:05;;;;;;;3.30;2.80;;;13.10;85.10;;;;;;5061870;28;20025;-65
2024/02/20 12:05:43;;;;;;;3.78;2.35;;;12.80;79.30;;;;;;5062043;28;20118;-65
2024/02/20 12:08:16;;;;;;;3.23;2.17;;;12.70;85.80;;;;;;5062026;28;20025;-71
2024/02/20 12:10:42;;;;;;;3.53;2.60;;;12.90;69.70;;;;;;5062003;28;20254;-65
2024/02/20 12:13:30;;;;;;;9.73;3.33;;;12.90;84.60;;;;;;5061640;28;20041;-64
2024/02/20 12:15:57;;;;;;;5.18;2.80;;;12.90;84.00;;;;;;5058849;28;20377;-66
2024/02/20 12:18:31;;;;;;;5.53;2.67;;;13.10;68.20;;;;;;5059185;28;20152;-66
2024/02/20 12:21:09;;;;;;;5.88;2.72;;;13.30;84.60;;;;;;5059069;28;20056;-64
2024/02/20 12:23:39;;;;;;;;;;;13.30;69.50;;;;;;5059607;28;20033;-69
2024/02/20 12:26:08;;;;;;;4.78;2.78;;;13.60;82.90;;;;;;5042485;28;19943;-65
2024/02/20 12:28:33;;;;;;;;;;;13.50;68.20;;;;;;5043000;28;20028;-66
2024/02/20 12:30:59;;;;;;;4.80;2.42;;;13.60;82.90;;;;;;5058931;28;19900;-64
2024/02/20 12:33:27;;;;;;;3.58;2.50;;;13.90;81.60;;;;;;5058697;28;20074;-64
2024/02/20 12:35:57;;;;;;;4.80;2.83;;;13.70;81.40;;;;;;5058705;28;20029;-69
2024/02/20 12:38:26;;;;;;;3.55;2.78;;;13.80;69.90;;;;;;5058596;28;20025;-64
2024/02/20 12:40:52;;;;;;;3.38;2.78;;;14.20;80.70;;;;;;5058469;28;20049;-64
2024/02/20 12:43:18;;;;;;;6.00;2.90;;;14.60;79.50;;;;;;5080676;28;20032;-67
2024/02/20 12:45:45;;;;;;;2.63;2.28;;;14.60;64.30;;;;;;5098755;28;20116;-64
2024/02/20 12:48:11;;;;;;;2.83;2.33;;;14.60;77.40;;;;;;5101297;28;20027;-64
2024/02/20 12:50:37;;;;;;;3.78;1.55;;;14.90;75.00;;;;;;5090904;28;20066;-64
2024/02/20 12:53:05;;;;;;;5.35;2.83;;;14.90;76.10;;;;;;5079669;28;20078;-64
2024/02/20 12:55:40;;;;;;;3.45;3.05;;;15.20;75.40;;;;;;5080780;28;20012;-63
2024/02/20 12:58:07;;;;;;;3.33;2.58;;;15.00;63.00;;;;;;5080464;28;20039;-67
2024/02/20 13:00:33;;;;;;;2.75;2.20;;;15.80;63.30;;;;;;5079939;28;20050;-65
2024/02/20 13:02:59;;;;;;;4.68;2.30;;;19.40;57.20;;;;;;5079722;28;20054;-64
2024/02/20 13:05:26;;;;;;;2.95;2.10;;;23.90;48.00;;;;;;5078358;28;20016;-66
2024/02/20 13:07:59;;;;;;;3.15;2.28;;;27.00;42.10;;;;;;5078716;28;20055;-65
2024/02/20 13:10:28;;;;;;;4.45;2.47;;;29.40;38.70;;;;;;5079828;28;20024;-66
2024/02/20 13:13:02;;;;;;;4.28;1.85;;;31.20;35.70;;;;;;5073298;28;20020;-66
2024/02/20 13:15:28;;;;;;;2.33;2.10;;;32.30;33.30;;;;;;5058202;28;20033;-65
2024/02/20 13:17:55;;;;;;;2.42;1.80;;;32.70;32.00;;;;;;5059624;28;20374;-66